Clarion, Iowa
Current Conditions -  °F | °C
As of 5:55 PM on Friday 19 Dec 2014 (Local Time) from KCAV Reporting Station
Overcast Overcast  
Wind Chill: 21°   Ceiling: 800
Heat Index: 30°   Visibility: 7mi
Dew Point: 30°   Wind: 10mph
Humidity: 100%   Direction: 150°SSE
Pressure: 30.19"   Gusts: NA
Location:  42.73°N, 93.73°W
Report Text: KCAV 192355Z AUTO 15009KT 7SM OVC008 M01/M01 A3019 RMK AO2
Loading
Personal Weather Stations






























Interactive Weather Map New forecast layout! Learn more

10-Day Weather Forecast

Advertisements
Track Severe Weather on mobile